sensor_id;sensor_type;location;lat;lon;timestamp;temperature;humidity
7686;DHT22;3885;51.474;-2.576;2023-01-16T00:01:36;4.40;99.90
7686;DHT22;3885;51.474;-2.576;2023-01-16T00:04:03;4.40;99.90
7686;DHT22;3885;51.474;-2.576;2023-01-16T00:06:30;4.40;99.90
7686;DHT22;3885;51.474;-2.576;2023-01-16T00:11:24;4.40;99.90
7686;DHT22;3885;51.474;-2.576;2023-01-16T00:13:53;4.30;99.90
7686;DHT22;3885;51.474;-2.576;2023-01-16T00:16:21;4.30;99.90
7686;DHT22;3885;51.474;-2.576;2023-01-16T00:18:48;4.30;99.90
7686;DHT22;3885;51.474;-2.576;2023-01-16T00:21:15;4.20;99.90
7686;DHT22;3885;51.474;-2.576;2023-01-16T00:23:42;4.20;99.90
7686;DHT22;3885;51.474;-2.576;2023-01-16T00:26:09;4.20;99.90
7686;DHT22;3885;51.474;-2.576;2023-01-16T00:28:37;4.20;99.90
7686;DHT22;3885;51.474;-2.576;2023-01-16T00:31:06;4.10;99.90
7686;DHT22;3885;51.474;-2.576;2023-01-16T00:33:33;4.10;99.90
7686;DHT22;3885;51.474;-2.576;2023-01-16T00:36:00;4.10;99.90
7686;DHT22;3885;51.474;-2.576;2023-01-16T00:40:55;4.20;99.90
7686;DHT22;3885;51.474;-2.576;2023-01-16T00:43:22;4.20;99.90
7686;DHT22;3885;51.474;-2.576;2023-01-16T00:45:49;4.20;99.90
7686;DHT22;3885;51.474;-2.576;2023-01-16T00:50:44;4.20;99.90
7686;DHT22;3885;51.474;-2.576;2023-01-16T00:53:11;4.20;99.90
7686;DHT22;3885;51.474;-2.576;2023-01-16T00:55:38;4.10;99.90
7686;DHT22;3885;51.474;-2.576;2023-01-16T00:58:07;4.10;99.90
7686;DHT22;3885;51.474;-2.576;2023-01-16T01:00:34;4.10;99.90
7686;DHT22;3885;51.474;-2.576;2023-01-16T01:03:02;4.10;99.90
7686;DHT22;3885;51.474;-2.576;2023-01-16T01:10:25;4.00;99.90
7686;DHT22;3885;51.474;-2.576;2023-01-16T01:12:53;4.00;99.90
7686;DHT22;3885;51.474;-2.576;2023-01-16T01:15:21;4.10;99.90
7686;DHT22;3885;51.474;-2.576;2023-01-16T01:22:45;4.10;99.90
7686;DHT22;3885;51.474;-2.576;2023-01-16T01:25:12;4.10;99.90
7686;DHT22;3885;51.474;-2.576;2023-01-16T01:27:39;4.10;99.90
7686;DHT22;3885;51.474;-2.576;2023-01-16T01:30:07;4.10;99.90
7686;DHT22;3885;51.474;-2.576;2023-01-16T01:32:34;4.00;99.90
7686;DHT22;3885;51.474;-2.576;2023-01-16T01:35:03;4.10;99.90
7686;DHT22;3885;51.474;-2.576;2023-01-16T01:37:30;4.10;99.90
7686;DHT22;3885;51.474;-2.576;2023-01-16T01:39:58;4.10;99.90
7686;DHT22;3885;51.474;-2.576;2023-01-16T01:42:25;4.10;99.90
7686;DHT22;3885;51.474;-2.576;2023-01-16T01:45:16;4.10;99.90
7686;DHT22;3885;51.474;-2.576;2023-01-16T01:47:48;4.10;99.90
7686;DHT22;3885;51.474;-2.576;2023-01-16T01:50:22;4.10;99.90
7686;DHT22;3885;51.474;-2.576;2023-01-16T01:52:53;4.20;99.90
7686;DHT22;3885;51.474;-2.576;2023-01-16T01:57:52;4.20;99.90
7686;DHT22;3885;51.474;-2.576;2023-01-16T02:00:23;4.20;99.90
7686;DHT22;3885;51.474;-2.576;2023-01-16T02:02:55;4.30;99.90
7686;DHT22;3885;51.474;-2.576;2023-01-16T02:05:26;4.30;99.90
7686;DHT22;3885;51.474;-2.576;2023-01-16T02:07:54;4.30;99.90
7686;DHT22;3885;51.474;-2.576;2023-01-16T02:10:29;4.30;99.90
7686;DHT22;3885;51.474;-2.576;2023-01-16T02:12:58;4.20;99.90
7686;DHT22;3885;51.474;-2.576;2023-01-16T02:15:25;4.20;99.90
7686;DHT22;3885;51.474;-2.576;2023-01-16T02:17:52;4.20;99.90
7686;DHT22;3885;51.474;-2.576;2023-01-16T02:26:39;4.20;99.90
7686;DHT22;3885;51.474;-2.576;2023-01-16T02:29:33;4.20;99.90
7686;DHT22;3885;51.474;-2.576;2023-01-16T02:32:10;4.20;99.90
7686;DHT22;3885;51.474;-2.576;2023-01-16T02:35:12;4.30;99.90
7686;DHT22;3885;51.474;-2.576;2023-01-16T02:37:45;4.20;99.90
7686;DHT22;3885;51.474;-2.576;2023-01-16T02:42:56;4.30;99.90
7686;DHT22;3885;51.474;-2.576;2023-01-16T02:45:29;4.20;99.90
7686;DHT22;3885;51.474;-2.576;2023-01-16T02:48:06;4.20;99.90
7686;DHT22;3885;51.474;-2.576;2023-01-16T02:50:39;4.20;99.90
7686;DHT22;3885;51.474;-2.576;2023-01-16T02:53:14;4.20;99.90
7686;DHT22;3885;51.474;-2.576;2023-01-16T02:55:46;4.20;99.90
7686;DHT22;3885;51.474;-2.576;2023-01-16T02:58:15;4.20;99.90
7686;DHT22;3885;51.474;-2.576;2023-01-16T03:00:49;4.20;99.90
7686;DHT22;3885;51.474;-2.576;2023-01-16T03:06:03;4.30;99.90
7686;DHT22;3885;51.474;-2.576;2023-01-16T03:08:39;4.30;99.90
7686;DHT22;3885;51.474;-2.576;2023-01-16T03:11:14;4.30;99.90
7686;DHT22;3885;51.474;-2.576;2023-01-16T03:14:05;4.40;99.90
7686;DHT22;3885;51.474;-2.576;2023-01-16T03:19:17;4.40;99.90
7686;DHT22;3885;51.474;-2.576;2023-01-16T03:21:54;4.40;99.90
7686;DHT22;3885;51.474;-2.576;2023-01-16T03:24:30;4.40;99.90
7686;DHT22;3885;51.474;-2.576;2023-01-16T03:27:08;4.40;99.90
7686;DHT22;3885;51.474;-2.576;2023-01-16T03:29:41;4.50;99.90
7686;DHT22;3885;51.474;-2.576;2023-01-16T03:32:17;4.50;99.90
7686;DHT22;3885;51.474;-2.576;2023-01-16T03:34:53;4.50;99.90
7686;DHT22;3885;51.474;-2.576;2023-01-16T03:37:25;4.50;99.90
7686;DHT22;3885;51.474;-2.576;2023-01-16T03:39:59;4.50;99.90
7686;DHT22;3885;51.474;-2.576;2023-01-16T03:42:34;4.50;99.90
7686;DHT22;3885;51.474;-2.576;2023-01-16T03:47:36;4.40;99.90
7686;DHT22;3885;51.474;-2.576;2023-01-16T03:50:09;4.50;99.90
7686;DHT22;3885;51.474;-2.576;2023-01-16T03:52:41;4.50;99.90
7686;DHT22;3885;51.474;-2.576;2023-01-16T03:55:14;4.50;99.90
7686;DHT22;3885;51.474;-2.576;2023-01-16T03:57:46;4.50;99.90
7686;DHT22;3885;51.474;-2.576;2023-01-16T04:00:15;4.50;99.90
7686;DHT22;3885;51.474;-2.576;2023-01-16T04:05:16;4.50;99.90
7686;DHT22;3885;51.474;-2.576;2023-01-16T04:07:46;4.40;99.90
7686;DHT22;3885;51.474;-2.576;2023-01-16T04:10:19;4.40;99.90
7686;DHT22;3885;51.474;-2.576;2023-01-16T04:12:52;4.40;99.90
7686;DHT22;3885;51.474;-2.576;2023-01-16T04:15:21;4.40;99.90
7686;DHT22;3885;51.474;-2.576;2023-01-16T04:17:48;4.40;99.90
7686;DHT22;3885;51.474;-2.576;2023-01-16T04:20:17;4.40;99.90
7686;DHT22;3885;51.474;-2.576;2023-01-16T04:27:42;4.40;99.90
7686;DHT22;3885;51.474;-2.576;2023-01-16T04:30:09;4.30;99.90
7686;DHT22;3885;51.474;-2.576;2023-01-16T04:32:38;4.30;99.90
7686;DHT22;3885;51.474;-2.576;2023-01-16T04:35:05;4.30;99.90
7686;DHT22;3885;51.474;-2.576;2023-01-16T04:37:34;4.30;99.90
7686;DHT22;3885;51.474;-2.576;2023-01-16T04:40:02;4.30;99.90
7686;DHT22;3885;51.474;-2.576;2023-01-16T04:42:29;4.20;99.90
7686;DHT22;3885;51.474;-2.576;2023-01-16T04:44:56;4.20;99.90
7686;DHT22;3885;51.474;-2.576;2023-01-16T04:47:23;4.20;99.90
7686;DHT22;3885;51.474;-2.576;2023-01-16T04:52:17;4.10;99.90
7686;DHT22;3885;51.474;-2.576;2023-01-16T04:54:45;4.20;99.90
7686;DHT22;3885;51.474;-2.576;2023-01-16T04:57:12;4.10;99.90
7686;DHT22;3885;51.474;-2.576;2023-01-16T04:59:39;4.10;99.90
7686;DHT22;3885;51.474;-2.576;2023-01-16T05:02:06;4.10;99.90
7686;DHT22;3885;51.474;-2.576;2023-01-16T05:04:33;4.10;99.90
7686;DHT22;3885;51.474;-2.576;2023-01-16T05:07:00;4.10;99.90
7686;DHT22;3885;51.474;-2.576;2023-01-16T05:09:26;4.00;99.90
7686;DHT22;3885;51.474;-2.576;2023-01-16T05:14:22;3.90;99.90
7686;DHT22;3885;51.474;-2.576;2023-01-16T05:16:49;3.90;99.90
7686;DHT22;3885;51.474;-2.576;2023-01-16T05:19:16;3.90;99.90
7686;DHT22;3885;51.474;-2.576;2023-01-16T05:21:43;4.00;99.90
7686;DHT22;3885;51.474;-2.576;2023-01-16T05:24:10;4.00;99.90
7686;DHT22;3885;51.474;-2.576;2023-01-16T05:26:37;3.90;99.90
7686;DHT22;3885;51.474;-2.576;2023-01-16T05:29:05;3.90;99.90
7686;DHT22;3885;51.474;-2.576;2023-01-16T05:31:32;4.00;99.90
7686;DHT22;3885;51.474;-2.576;2023-01-16T05:33:59;4.00;99.90
7686;DHT22;3885;51.474;-2.576;2023-01-16T05:36:26;4.00;99.90
7686;DHT22;3885;51.474;-2.576;2023-01-16T05:38:53;3.90;99.90
7686;DHT22;3885;51.474;-2.576;2023-01-16T05:41:20;3.90;99.90
7686;DHT22;3885;51.474;-2.576;2023-01-16T05:43:47;3.90;99.90
7686;DHT22;3885;51.474;-2.576;2023-01-16T05:46:15;3.90;99.90
7686;DHT22;3885;51.474;-2.576;2023-01-16T05:48:43;3.90;99.90
7686;DHT22;3885;51.474;-2.576;2023-01-16T05:51:10;3.90;99.90
7686;DHT22;3885;51.474;-2.576;2023-01-16T05:53:37;3.90;99.90
7686;DHT22;3885;51.474;-2.576;2023-01-16T05:56:06;3.90;99.90
7686;DHT22;3885;51.474;-2.576;2023-01-16T05:58:34;3.80;99.90
7686;DHT22;3885;51.474;-2.576;2023-01-16T06:01:01;3.80;99.90
7686;DHT22;3885;51.474;-2.576;2023-01-16T06:03:30;3.80;99.90
7686;DHT22;3885;51.474;-2.576;2023-01-16T06:05:57;3.80;99.90
7686;DHT22;3885;51.474;-2.576;2023-01-16T06:08:26;3.80;99.90
7686;DHT22;3885;51.474;-2.576;2023-01-16T06:10:53;3.80;99.90
7686;DHT22;3885;51.474;-2.576;2023-01-16T06:13:20;3.80;99.90
7686;DHT22;3885;51.474;-2.576;2023-01-16T06:15:47;3.80;99.90
7686;DHT22;3885;51.474;-2.576;2023-01-16T06:18:13;3.90;99.90
7686;DHT22;3885;51.474;-2.576;2023-01-16T06:20:43;3.80;99.90
7686;DHT22;3885;51.474;-2.576;2023-01-16T06:23:10;3.80;99.90
7686;DHT22;3885;51.474;-2.576;2023-01-16T06:25:37;3.80;99.90
7686;DHT22;3885;51.474;-2.576;2023-01-16T06:28:04;3.80;99.90
7686;DHT22;3885;51.474;-2.576;2023-01-16T06:30:31;3.90;99.90
7686;DHT22;3885;51.474;-2.576;2023-01-16T06:32:57;3.90;99.90
7686;DHT22;3885;51.474;-2.576;2023-01-16T06:35:24;3.90;99.90
7686;DHT22;3885;51.474;-2.576;2023-01-16T06:37:53;4.00;99.90
7686;DHT22;3885;51.474;-2.576;2023-01-16T06:40:20;4.00;99.90
7686;DHT22;3885;51.474;-2.576;2023-01-16T06:42:46;4.00;99.90
7686;DHT22;3885;51.474;-2.576;2023-01-16T06:45:13;4.00;99.90
7686;DHT22;3885;51.474;-2.576;2023-01-16T06:47:40;4.10;99.90
7686;DHT22;3885;51.474;-2.576;2023-01-16T06:50:09;4.10;99.90
7686;DHT22;3885;51.474;-2.576;2023-01-16T06:52:36;4.20;99.90
7686;DHT22;3885;51.474;-2.576;2023-01-16T06:55:07;4.10;99.90
7686;DHT22;3885;51.474;-2.576;2023-01-16T06:57:35;4.20;99.90
7686;DHT22;3885;51.474;-2.576;2023-01-16T07:00:03;4.20;99.90
7686;DHT22;3885;51.474;-2.576;2023-01-16T07:02:30;4.30;99.90
7686;DHT22;3885;51.474;-2.576;2023-01-16T07:07:24;4.20;99.90
7686;DHT22;3885;51.474;-2.576;2023-01-16T07:09:51;4.20;99.90
7686;DHT22;3885;51.474;-2.576;2023-01-16T07:12:19;4.20;99.90
7686;DHT22;3885;51.474;-2.576;2023-01-16T07:14:46;4.20;99.90
7686;DHT22;3885;51.474;-2.576;2023-01-16T07:17:31;4.20;99.90
7686;DHT22;3885;51.474;-2.576;2023-01-16T07:20:20;4.20;99.90
7686;DHT22;3885;51.474;-2.576;2023-01-16T07:23:16;4.30;99.90
7686;DHT22;3885;51.474;-2.576;2023-01-16T07:28:13;4.30;99.90
7686;DHT22;3885;51.474;-2.576;2023-01-16T07:30:40;4.40;99.90
7686;DHT22;3885;51.474;-2.576;2023-01-16T07:35:34;4.40;99.90
7686;DHT22;3885;51.474;-2.576;2023-01-16T07:38:02;4.40;99.90
7686;DHT22;3885;51.474;-2.576;2023-01-16T07:40:28;4.40;99.90
7686;DHT22;3885;51.474;-2.576;2023-01-16T07:42:56;4.40;99.90
7686;DHT22;3885;51.474;-2.576;2023-01-16T07:45:24;4.40;99.90
7686;DHT22;3885;51.474;-2.576;2023-01-16T07:47:51;4.50;99.90
7686;DHT22;3885;51.474;-2.576;2023-01-16T07:50:18;4.50;99.90
7686;DHT22;3885;51.474;-2.576;2023-01-16T07:52:45;4.40;99.90
7686;DHT22;3885;51.474;-2.576;2023-01-16T07:55:12;4.40;99.90
7686;DHT22;3885;51.474;-2.576;2023-01-16T07:57:40;4.30;99.90
7686;DHT22;3885;51.474;-2.576;2023-01-16T08:02:37;4.30;99.90
7686;DHT22;3885;51.474;-2.576;2023-01-16T08:05:05;4.20;99.90
7686;DHT22;3885;51.474;-2.576;2023-01-16T08:07:32;4.10;99.90
7686;DHT22;3885;51.474;-2.576;2023-01-16T08:09:59;4.10;99.90
7686;DHT22;3885;51.474;-2.576;2023-01-16T08:14:53;4.20;99.90
7686;DHT22;3885;51.474;-2.576;2023-01-16T08:17:20;4.20;99.90
7686;DHT22;3885;51.474;-2.576;2023-01-16T08:19:48;4.20;99.90
7686;DHT22;3885;51.474;-2.576;2023-01-16T08:22:15;4.20;99.90
7686;DHT22;3885;51.474;-2.576;2023-01-16T08:24:42;4.20;99.90
7686;DHT22;3885;51.474;-2.576;2023-01-16T08:27:09;4.20;99.90
7686;DHT22;3885;51.474;-2.576;2023-01-16T08:32:04;4.30;99.90
7686;DHT22;3885;51.474;-2.576;2023-01-16T08:36:59;4.30;99.90
7686;DHT22;3885;51.474;-2.576;2023-01-16T08:39:28;4.40;99.90
7686;DHT22;3885;51.474;-2.576;2023-01-16T08:41:55;4.40;99.90
7686;DHT22;3885;51.474;-2.576;2023-01-16T08:50:11;4.40;99.90
7686;DHT22;3885;51.474;-2.576;2023-01-16T08:52:57;4.40;99.90
7686;DHT22;3885;51.474;-2.576;2023-01-16T08:55:24;4.40;99.90
7686;DHT22;3885;51.474;-2.576;2023-01-16T08:57:51;4.50;99.90
7686;DHT22;3885;51.474;-2.576;2023-01-16T09:00:19;4.50;99.90
7686;DHT22;3885;51.474;-2.576;2023-01-16T09:02:46;4.50;99.90
7686;DHT22;3885;51.474;-2.576;2023-01-16T09:05:13;4.40;99.90
7686;DHT22;3885;51.474;-2.576;2023-01-16T09:07:40;4.40;99.90
7686;DHT22;3885;51.474;-2.576;2023-01-16T09:10:10;4.50;99.90
7686;DHT22;3885;51.474;-2.576;2023-01-16T09:12:38;4.50;99.90
7686;DHT22;3885;51.474;-2.576;2023-01-16T09:15:23;4.60;99.90
7686;DHT22;3885;51.474;-2.576;2023-01-16T09:17:49;4.70;99.90
7686;DHT22;3885;51.474;-2.576;2023-01-16T09:20:16;4.70;99.90
7686;DHT22;3885;51.474;-2.576;2023-01-16T09:22:43;4.70;99.90
7686;DHT22;3885;51.474;-2.576;2023-01-16T09:25:12;4.70;99.90
7686;DHT22;3885;51.474;-2.576;2023-01-16T09:27:39;4.80;99.90
7686;DHT22;3885;51.474;-2.576;2023-01-16T09:30:07;4.80;99.90
7686;DHT22;3885;51.474;-2.576;2023-01-16T09:32:34;4.80;99.90
7686;DHT22;3885;51.474;-2.576;2023-01-16T09:35:01;4.90;99.90
7686;DHT22;3885;51.474;-2.576;2023-01-16T09:37:28;5.00;99.90
7686;DHT22;3885;51.474;-2.576;2023-01-16T09:42:36;5.20;99.90
7686;DHT22;3885;51.474;-2.576;2023-01-16T09:47:54;5.50;99.90
7686;DHT22;3885;51.474;-2.576;2023-01-16T09:50:30;5.50;99.90
7686;DHT22;3885;51.474;-2.576;2023-01-16T09:53:00;5.60;99.90
7686;DHT22;3885;51.474;-2.576;2023-01-16T09:55:47;5.50;99.90
7686;DHT22;3885;51.474;-2.576;2023-01-16T09:58:37;5.60;99.90
7686;DHT22;3885;51.474;-2.576;2023-01-16T10:01:08;5.60;99.90
7686;DHT22;3885;51.474;-2.576;2023-01-16T10:03:36;5.60;99.90
7686;DHT22;3885;51.474;-2.576;2023-01-16T10:06:15;5.60;99.90
7686;DHT22;3885;51.474;-2.576;2023-01-16T10:08:51;5.70;99.90
7686;DHT22;3885;51.474;-2.576;2023-01-16T10:11:22;5.60;99.90
7686;DHT22;3885;51.474;-2.576;2023-01-16T10:14:14;5.60;99.90
7686;DHT22;3885;51.474;-2.576;2023-01-16T10:16:53;5.60;99.90
7686;DHT22;3885;51.474;-2.576;2023-01-16T10:19:32;5.60;99.90
7686;DHT22;3885;51.474;-2.576;2023-01-16T10:22:12;5.60;99.90
7686;DHT22;3885;51.474;-2.576;2023-01-16T10:24:52;5.60;99.90
7686;DHT22;3885;51.474;-2.576;2023-01-16T10:27:28;5.70;99.90
7686;DHT22;3885;51.474;-2.576;2023-01-16T10:32:32;5.60;99.90
7686;DHT22;3885;51.474;-2.576;2023-01-16T10:35:03;5.70;99.90
7686;DHT22;3885;51.474;-2.576;2023-01-16T10:37:33;5.60;99.90
7686;DHT22;3885;51.474;-2.576;2023-01-16T10:40:11;5.70;99.90
7686;DHT22;3885;51.474;-2.576;2023-01-16T10:42:41;5.60;99.90
7686;DHT22;3885;51.474;-2.576;2023-01-16T10:48:16;5.60;99.90
7686;DHT22;3885;51.474;-2.576;2023-01-16T10:51:02;5.60;99.90
7686;DHT22;3885;51.474;-2.576;2023-01-16T10:55:58;5.70;99.90
7686;DHT22;3885;51.474;-2.576;2023-01-16T10:58:28;5.70;99.90
7686;DHT22;3885;51.474;-2.576;2023-01-16T11:01:00;5.70;99.90
7686;DHT22;3885;51.474;-2.576;2023-01-16T11:03:32;5.80;99.90
7686;DHT22;3885;51.474;-2.576;2023-01-16T11:06:11;5.70;99.90
7686;DHT22;3885;51.474;-2.576;2023-01-16T11:08:39;5.70;99.90
7686;DHT22;3885;51.474;-2.576;2023-01-16T11:11:09;5.70;99.90
7686;DHT22;3885;51.474;-2.576;2023-01-16T11:16:43;5.80;99.90
7686;DHT22;3885;51.474;-2.576;2023-01-16T11:19:28;5.90;99.90
7686;DHT22;3885;51.474;-2.576;2023-01-16T11:21:58;5.90;99.90
7686;DHT22;3885;51.474;-2.576;2023-01-16T11:26:58;5.90;99.90
7686;DHT22;3885;51.474;-2.576;2023-01-16T11:29:27;5.90;99.90
7686;DHT22;3885;51.474;-2.576;2023-01-16T11:31:59;5.90;99.90
7686;DHT22;3885;51.474;-2.576;2023-01-16T11:34:28;5.90;99.90
7686;DHT22;3885;51.474;-2.576;2023-01-16T11:36:58;6.00;99.90
7686;DHT22;3885;51.474;-2.576;2023-01-16T11:39:28;6.10;99.90
7686;DHT22;3885;51.474;-2.576;2023-01-16T11:41:57;6.10;99.90
7686;DHT22;3885;51.474;-2.576;2023-01-16T11:44:28;6.10;99.90
7686;DHT22;3885;51.474;-2.576;2023-01-16T11:47:15;6.00;99.90
7686;DHT22;3885;51.474;-2.576;2023-01-16T11:49:45;5.90;99.90
7686;DHT22;3885;51.474;-2.576;2023-01-16T11:54:53;5.90;99.90
7686;DHT22;3885;51.474;-2.576;2023-01-16T12:00:30;5.90;99.90
7686;DHT22;3885;51.474;-2.576;2023-01-16T12:03:34;6.00;99.90
7686;DHT22;3885;51.474;-2.576;2023-01-16T12:06:14;6.00;99.90
7686;DHT22;3885;51.474;-2.576;2023-01-16T12:09:03;6.10;99.90
7686;DHT22;3885;51.474;-2.576;2023-01-16T12:14:10;6.00;99.90
7686;DHT22;3885;51.474;-2.576;2023-01-16T12:17:01;6.00;99.90
7686;DHT22;3885;51.474;-2.576;2023-01-16T12:19:59;5.90;99.90
7686;DHT22;3885;51.474;-2.576;2023-01-16T12:22:42;5.90;99.90
7686;DHT22;3885;51.474;-2.576;2023-01-16T12:25:25;5.80;99.90
7686;DHT22;3885;51.474;-2.576;2023-01-16T12:30:38;5.80;99.90
7686;DHT22;3885;51.474;-2.576;2023-01-16T12:33:16;5.60;99.90
7686;DHT22;3885;51.474;-2.576;2023-01-16T12:38:26;5.70;99.90
7686;DHT22;3885;51.474;-2.576;2023-01-16T12:41:14;5.60;99.90
7686;DHT22;3885;51.474;-2.576;2023-01-16T12:44:12;5.60;99.90
7686;DHT22;3885;51.474;-2.576;2023-01-16T12:49:27;5.80;99.90
7686;DHT22;3885;51.474;-2.576;2023-01-16T12:52:12;5.80;99.90
7686;DHT22;3885;51.474;-2.576;2023-01-16T12:54:58;5.80;99.90
7686;DHT22;3885;51.474;-2.576;2023-01-16T12:57:37;5.90;99.90
7686;DHT22;3885;51.474;-2.576;2023-01-16T13:02:41;6.20;99.90
7686;DHT22;3885;51.474;-2.576;2023-01-16T13:05:12;6.30;99.90
7686;DHT22;3885;51.474;-2.576;2023-01-16T13:07:50;6.50;99.90
7686;DHT22;3885;51.474;-2.576;2023-01-16T13:10:21;6.50;99.90
7686;DHT22;3885;51.474;-2.576;2023-01-16T13:16:09;6.70;99.90
7686;DHT22;3885;51.474;-2.576;2023-01-16T13:18:41;6.70;99.90
7686;DHT22;3885;51.474;-2.576;2023-01-16T13:21:17;6.50;99.90
7686;DHT22;3885;51.474;-2.576;2023-01-16T13:23:55;6.20;99.90
7686;DHT22;3885;51.474;-2.576;2023-01-16T13:26:27;6.20;99.90
7686;DHT22;3885;51.474;-2.576;2023-01-16T13:29:00;6.10;99.90
7686;DHT22;3885;51.474;-2.576;2023-01-16T13:34:03;5.80;99.90
7686;DHT22;3885;51.474;-2.576;2023-01-16T13:37:03;5.90;99.90
7686;DHT22;3885;51.474;-2.576;2023-01-16T13:42:46;5.60;99.90
7686;DHT22;3885;51.474;-2.576;2023-01-16T13:45:18;5.60;99.90
7686;DHT22;3885;51.474;-2.576;2023-01-16T13:48:10;5.50;99.90
7686;DHT22;3885;51.474;-2.576;2023-01-16T13:50:37;5.30;99.90
7686;DHT22;3885;51.474;-2.576;2023-01-16T13:55:36;5.40;99.90
7686;DHT22;3885;51.474;-2.576;2023-01-16T13:58:09;5.30;99.90
7686;DHT22;3885;51.474;-2.576;2023-01-16T14:00:46;5.30;99.90
7686;DHT22;3885;51.474;-2.576;2023-01-16T14:11:39;5.30;99.90
7686;DHT22;3885;51.474;-2.576;2023-01-16T14:19:36;5.30;99.90
7686;DHT22;3885;51.474;-2.576;2023-01-16T14:22:04;5.20;99.90
7686;DHT22;3885;51.474;-2.576;2023-01-16T14:24:52;5.20;99.90
7686;DHT22;3885;51.474;-2.576;2023-01-16T14:27:22;5.20;99.90
7686;DHT22;3885;51.474;-2.576;2023-01-16T14:32:24;5.30;99.90
7686;DHT22;3885;51.474;-2.576;2023-01-16T14:37:22;5.30;99.90
7686;DHT22;3885;51.474;-2.576;2023-01-16T14:39:52;5.30;99.90
7686;DHT22;3885;51.474;-2.576;2023-01-16T14:42:23;5.30;99.90
7686;DHT22;3885;51.474;-2.576;2023-01-16T14:45:24;5.10;99.90
7686;DHT22;3885;51.474;-2.576;2023-01-16T14:48:13;5.10;99.90
7686;DHT22;3885;51.474;-2.576;2023-01-16T14:53:46;5.10;99.90
7686;DHT22;3885;51.474;-2.576;2023-01-16T14:56:33;5.10;99.90
7686;DHT22;3885;51.474;-2.576;2023-01-16T14:59:05;5.10;99.90
7686;DHT22;3885;51.474;-2.576;2023-01-16T15:01:39;5.00;99.90
7686;DHT22;3885;51.474;-2.576;2023-01-16T15:09:28;4.90;99.70
7686;DHT22;3885;51.474;-2.576;2023-01-16T15:11:58;4.80;99.30
7686;DHT22;3885;51.474;-2.576;2023-01-16T15:14:25;4.80;99.10
7686;DHT22;3885;51.474;-2.576;2023-01-16T15:20:24;4.80;98.80
7686;DHT22;3885;51.474;-2.576;2023-01-16T15:23:23;4.70;99.70
7686;DHT22;3885;51.474;-2.576;2023-01-16T15:28:46;4.80;99.90
7686;DHT22;3885;51.474;-2.576;2023-01-16T15:31:20;4.80;99.90
7686;DHT22;3885;51.474;-2.576;2023-01-16T15:39:17;4.80;99.40
7686;DHT22;3885;51.474;-2.576;2023-01-16T15:44:32;4.50;99.20
7686;DHT22;3885;51.474;-2.576;2023-01-16T15:47:43;4.50;99.40
7686;DHT22;3885;51.474;-2.576;2023-01-16T15:50:23;4.30;98.80
7686;DHT22;3885;51.474;-2.576;2023-01-16T15:52:51;4.10;98.60
7686;DHT22;3885;51.474;-2.576;2023-01-16T15:55:20;4.10;98.30
7686;DHT22;3885;51.474;-2.576;2023-01-16T16:00:29;4.00;99.00
7686;DHT22;3885;51.474;-2.576;2023-01-16T16:02:58;3.80;99.00
7686;DHT22;3885;51.474;-2.576;2023-01-16T16:07:55;3.80;99.20
7686;DHT22;3885;51.474;-2.576;2023-01-16T16:13:09;3.70;98.80
7686;DHT22;3885;51.474;-2.576;2023-01-16T16:15:56;3.60;99.40
7686;DHT22;3885;51.474;-2.576;2023-01-16T16:18:54;3.60;99.40
7686;DHT22;3885;51.474;-2.576;2023-01-16T16:21:26;3.50;99.90
7686;DHT22;3885;51.474;-2.576;2023-01-16T16:31:28;3.30;99.90
7686;DHT22;3885;51.474;-2.576;2023-01-16T16:36:26;3.00;99.90
7686;DHT22;3885;51.474;-2.576;2023-01-16T16:38:54;3.00;99.90
7686;DHT22;3885;51.474;-2.576;2023-01-16T16:46:56;2.60;99.90
7686;DHT22;3885;51.474;-2.576;2023-01-16T16:49:29;2.40;99.90
7686;DHT22;3885;51.474;-2.576;2023-01-16T16:52:33;2.20;99.90
7686;DHT22;3885;51.474;-2.576;2023-01-16T16:55:03;2.00;99.90
7686;DHT22;3885;51.474;-2.576;2023-01-16T16:57:41;1.80;99.90
7686;DHT22;3885;51.474;-2.576;2023-01-16T17:00:15;1.80;99.90
7686;DHT22;3885;51.474;-2.576;2023-01-16T17:02:46;1.70;99.90
7686;DHT22;3885;51.474;-2.576;2023-01-16T17:07:45;1.80;99.90
7686;DHT22;3885;51.474;-2.576;2023-01-16T17:10:14;1.90;99.90
7686;DHT22;3885;51.474;-2.576;2023-01-16T17:12:41;2.00;99.90
7686;DHT22;3885;51.474;-2.576;2023-01-16T17:15:09;2.00;99.90
7686;DHT22;3885;51.474;-2.576;2023-01-16T17:17:39;2.10;99.90
7686;DHT22;3885;51.474;-2.576;2023-01-16T17:20:15;2.10;99.90
7686;DHT22;3885;51.474;-2.576;2023-01-16T17:22:44;2.10;99.90
7686;DHT22;3885;51.474;-2.576;2023-01-16T17:30:13;2.10;99.90
7686;DHT22;3885;51.474;-2.576;2023-01-16T17:35:13;1.90;99.90
7686;DHT22;3885;51.474;-2.576;2023-01-16T17:45:29;1.80;99.90
7686;DHT22;3885;51.474;-2.576;2023-01-16T17:48:14;1.80;99.90
7686;DHT22;3885;51.474;-2.576;2023-01-16T17:53:11;1.70;99.90
7686;DHT22;3885;51.474;-2.576;2023-01-16T17:55:40;1.60;99.90
7686;DHT22;3885;51.474;-2.576;2023-01-16T17:58:24;1.60;99.90
7686;DHT22;3885;51.474;-2.576;2023-01-16T18:00:58;1.60;99.90
7686;DHT22;3885;51.474;-2.576;2023-01-16T18:05:57;1.60;99.90
7686;DHT22;3885;51.474;-2.576;2023-01-16T18:08:26;1.60;99.90
7686;DHT22;3885;51.474;-2.576;2023-01-16T18:10:55;1.50;99.90
7686;DHT22;3885;51.474;-2.576;2023-01-16T18:13:22;1.50;99.90
7686;DHT22;3885;51.474;-2.576;2023-01-16T18:24:07;0.90;99.90
7686;DHT22;3885;51.474;-2.576;2023-01-16T18:26:35;0.80;99.90
7686;DHT22;3885;51.474;-2.576;2023-01-16T18:29:02;0.70;99.90
7686;DHT22;3885;51.474;-2.576;2023-01-16T18:31:29;0.70;99.90
7686;DHT22;3885;51.474;-2.576;2023-01-16T18:33:56;0.60;99.90
7686;DHT22;3885;51.474;-2.576;2023-01-16T18:36:23;0.40;99.90
7686;DHT22;3885;51.474;-2.576;2023-01-16T18:38:52;0.30;99.90
7686;DHT22;3885;51.474;-2.576;2023-01-16T18:41:40;0.20;99.90
7686;DHT22;3885;51.474;-2.576;2023-01-16T18:44:24;0.10;99.90
7686;DHT22;3885;51.474;-2.576;2023-01-16T18:47:14;0.10;99.90
7686;DHT22;3885;51.474;-2.576;2023-01-16T18:50:01;0.10;99.90
7686;DHT22;3885;51.474;-2.576;2023-01-16T18:52:46;0.00;99.90
7686;DHT22;3885;51.474;-2.576;2023-01-16T18:58:00;0.00;99.90
7686;DHT22;3885;51.474;-2.576;2023-01-16T19:00:49;-0.10;99.90
7686;DHT22;3885;51.474;-2.576;2023-01-16T19:06:11;-0.30;99.90
7686;DHT22;3885;51.474;-2.576;2023-01-16T19:08:44;-0.30;99.90
7686;DHT22;3885;51.474;-2.576;2023-01-16T19:11:18;-0.30;99.90
7686;DHT22;3885;51.474;-2.576;2023-01-16T19:16:23;-0.30;99.90
7686;DHT22;3885;51.474;-2.576;2023-01-16T19:19:07;-0.40;99.90
7686;DHT22;3885;51.474;-2.576;2023-01-16T19:21:37;-0.40;99.90
7686;DHT22;3885;51.474;-2.576;2023-01-16T19:24:07;-0.40;99.90
7686;DHT22;3885;51.474;-2.576;2023-01-16T19:26:34;-0.50;99.90
7686;DHT22;3885;51.474;-2.576;2023-01-16T19:29:01;-0.50;99.90
7686;DHT22;3885;51.474;-2.576;2023-01-16T19:31:30;-0.50;99.90
7686;DHT22;3885;51.474;-2.576;2023-01-16T19:33:57;-0.50;99.90
7686;DHT22;3885;51.474;-2.576;2023-01-16T19:36:23;-0.60;99.90
7686;DHT22;3885;51.474;-2.576;2023-01-16T19:38:51;-0.60;99.90
7686;DHT22;3885;51.474;-2.576;2023-01-16T19:41:18;-0.60;99.90
7686;DHT22;3885;51.474;-2.576;2023-01-16T19:44:03;-0.60;99.90
7686;DHT22;3885;51.474;-2.576;2023-01-16T19:46:49;-0.70;99.90
7686;DHT22;3885;51.474;-2.576;2023-01-16T19:49:16;-0.70;99.90
7686;DHT22;3885;51.474;-2.576;2023-01-16T19:51:43;-0.70;99.90
7686;DHT22;3885;51.474;-2.576;2023-01-16T19:54:10;-0.70;99.90
7686;DHT22;3885;51.474;-2.576;2023-01-16T19:56:38;-0.70;99.90
7686;DHT22;3885;51.474;-2.576;2023-01-16T19:59:06;-0.80;99.90
7686;DHT22;3885;51.474;-2.576;2023-01-16T20:01:34;-0.80;99.90
7686;DHT22;3885;51.474;-2.576;2023-01-16T20:04:03;-0.80;99.90
7686;DHT22;3885;51.474;-2.576;2023-01-16T20:06:30;-0.80;99.90
7686;DHT22;3885;51.474;-2.576;2023-01-16T20:11:24;-0.90;99.90
7686;DHT22;3885;51.474;-2.576;2023-01-16T20:14:12;-0.90;99.90
7686;DHT22;3885;51.474;-2.576;2023-01-16T20:16:39;-1.00;99.90
7686;DHT22;3885;51.474;-2.576;2023-01-16T20:19:08;-1.00;99.90